createdAt,value
2019-05-25T00:04:01.193Z,15.47
2019-05-25T00:08:55.597Z,15.47
2019-05-25T00:13:50.080Z,14.73
2019-05-25T00:18:44.203Z,14.40
2019-05-25T00:23:39.006Z,14.57
2019-05-25T00:28:33.204Z,13.13
2019-05-25T00:33:27.173Z,12.80
2019-05-25T00:38:20.923Z,12.27
2019-05-25T00:43:15.067Z,12.80
2019-05-25T00:48:09.482Z,13.80
2019-05-25T00:53:06.343Z,12.10
2019-05-25T00:58:00.703Z,12.50
2019-05-25T01:07:47.895Z,12.33
2019-05-25T01:12:42.135Z,13.27
2019-05-25T01:17:37.011Z,12.90
2019-05-25T01:22:32.912Z,10.80
2019-05-25T01:27:26.612Z,11.43
2019-05-25T01:32:22.787Z,11.00
2019-05-25T01:37:16.578Z,10.47
2019-05-25T01:42:14.193Z,11.57
2019-05-25T01:47:08.968Z,10.43
2019-05-25T01:52:03.986Z,11.97
2019-05-25T01:56:59.100Z,12.20
2019-05-25T02:01:53.299Z,12.17
2019-05-25T02:06:47.730Z,12.40
2019-05-25T02:11:41.901Z,19.87
2019-05-25T02:16:36.301Z,19.93
2019-05-25T02:21:33.158Z,17.53
2019-05-25T02:26:27.355Z,16.27
2019-05-25T02:31:21.183Z,13.73
2019-05-25T02:36:15.547Z,13.77
2019-05-25T02:41:10.051Z,14.00
2019-05-25T02:46:06.038Z,13.53
2019-05-25T02:51:00.507Z,12.43
2019-05-25T02:55:54.819Z,13.17
2019-05-25T03:00:49.912Z,13.17
2019-05-25T03:05:44.010Z,12.53
2019-05-25T03:10:37.882Z,12.87
2019-05-25T03:15:37.714Z,12.23
2019-05-25T03:20:34.256Z,11.67
2019-05-25T03:25:29.092Z,11.80
2019-05-25T03:30:31.952Z,11.83
2019-05-25T03:35:26.294Z,11.37
2019-05-25T03:40:20.296Z,11.43
2019-05-25T03:45:15.708Z,10.97
2019-05-25T03:50:10.114Z,11.33
2019-05-25T03:55:06.097Z,12.73
2019-05-25T04:00:00.494Z,11.60
2019-05-25T04:04:55.163Z,10.63
2019-05-25T04:09:49.743Z,11.87
2019-05-25T04:14:44.073Z,10.63
2019-05-25T04:19:38.144Z,10.70
2019-05-25T04:24:31.918Z,9.57
2019-05-25T04:29:27.013Z,9.77
2019-05-25T04:34:28.771Z,9.73
2019-05-25T04:39:23.582Z,9.93
2019-05-25T04:44:17.327Z,9.33
2019-05-25T04:49:12.297Z,10.23
2019-05-25T04:54:06.868Z,9.57
2019-05-25T04:59:01.406Z,9.20
2019-05-25T05:03:55.334Z,9.10
2019-05-25T05:08:49.941Z,7.90
2019-05-25T05:13:43.724Z,7.23
2019-05-25T05:18:38.377Z,6.70
2019-05-25T05:23:32.460Z,5.77
2019-05-25T05:28:27.132Z,6.27
2019-05-25T05:33:21.263Z,5.97
2019-05-25T05:38:17.982Z,5.60
2019-05-25T05:43:12.129Z,5.50
2019-05-25T05:48:09.297Z,5.47
2019-05-25T05:53:05.618Z,6.03
2019-05-25T05:58:00.423Z,5.43
2019-05-25T06:02:54.540Z,5.67
2019-05-25T06:07:50.535Z,6.13
2019-05-25T06:12:44.883Z,4.60
2019-05-25T06:17:39.691Z,5.23
2019-05-25T06:22:34.095Z,4.77
2019-05-25T06:27:30.549Z,3.72
2019-05-25T06:32:26.173Z,2.77
2019-05-25T06:37:21.585Z,4.03
2019-05-25T06:42:15.430Z,2.10
2019-05-25T06:47:10.715Z,1.80
2019-05-25T06:52:06.697Z,2.20
2019-05-25T06:57:01.273Z,2.00
2019-05-25T07:01:57.819Z,1.85
2019-05-25T07:06:51.719Z,2.67
2019-05-25T07:11:45.583Z,2.30
2019-05-25T07:16:40.327Z,3.58
2019-05-25T07:21:37.369Z,4.40
2019-05-25T07:26:32.309Z,1.65
2019-05-25T07:31:27.912Z,2.45
2019-05-25T07:36:23.037Z,1.85
2019-05-25T07:41:17.261Z,1.27
2019-05-25T07:46:12.295Z,2.95
2019-05-25T07:51:12.398Z,1.10
2019-05-25T07:56:07.088Z,1.60
2019-05-25T08:01:00.956Z,1.90
2019-05-25T08:05:56.787Z,2.45
2019-05-25T08:10:52.876Z,1.57
2019-05-25T08:15:47.155Z,2.55
2019-05-25T08:20:46.535Z,3.30
2019-05-25T08:25:39.858Z,2.83
2019-05-25T08:30:34.032Z,2.42
2019-05-25T08:35:29.994Z,2.95
2019-05-25T08:40:24.774Z,3.40
2019-05-25T08:45:20.886Z,2.37
2019-05-25T08:50:15.059Z,2.02
2019-05-25T08:55:09.853Z,2.00
2019-05-25T09:00:04.936Z,2.00
2019-05-25T09:05:00.134Z,2.17
2019-05-25T09:09:54.507Z,1.67
2019-05-25T09:19:42.554Z,1.53
2019-05-25T09:24:36.859Z,2.50
2019-05-25T09:29:31.629Z,2.60
2019-05-25T09:34:26.157Z,1.53
2019-05-25T09:39:22.137Z,2.12
2019-05-25T09:44:16.740Z,1.47
2019-05-25T09:49:11.215Z,1.70
2019-05-25T09:54:05.650Z,1.80
2019-05-25T09:58:59.745Z,1.70
2019-05-25T10:03:56.779Z,2.20
2019-05-25T10:08:51.139Z,1.92
2019-05-25T10:13:44.893Z,2.40
2019-05-25T10:18:40.411Z,3.15
2019-05-25T10:23:34.989Z,2.72
2019-05-25T10:28:28.970Z,1.70
2019-05-25T10:33:22.757Z,2.00
2019-05-25T10:38:16.767Z,1.82
2019-05-25T10:43:11.566Z,1.37
2019-05-25T10:48:07.552Z,2.10
2019-05-25T10:53:04.641Z,1.70
2019-05-25T10:57:59.033Z,2.13
2019-05-25T11:02:53.115Z,2.67
2019-05-25T11:07:47.227Z,2.83
2019-05-25T11:12:41.007Z,3.10
2019-05-25T11:17:35.292Z,3.43
2019-05-25T11:22:29.596Z,3.43
2019-05-25T11:27:23.813Z,3.53
2019-05-25T11:32:20.961Z,2.43
2019-05-25T11:42:07.794Z,3.37
2019-05-25T11:47:02.953Z,2.70
2019-05-25T11:51:56.893Z,2.80
2019-05-25T11:56:51.453Z,2.93
2019-05-25T12:01:45.300Z,3.33
2019-05-25T12:06:39.527Z,3.87
2019-05-25T12:11:33.517Z,4.43
2019-05-25T12:16:29.356Z,2.67
2019-05-25T12:21:25.211Z,3.60
2019-05-25T12:26:18.655Z,4.07
2019-05-25T12:31:13.833Z,4.73
2019-05-25T12:36:12.233Z,4.07
2019-05-25T12:41:08.075Z,2.83
2019-05-25T12:46:02.405Z,3.10
2019-05-25T12:50:57.019Z,4.10
2019-05-25T12:55:51.126Z,3.27
2019-05-25T13:00:55.604Z,2.60
2019-05-25T13:05:40.747Z,6.13
2019-05-25T13:10:35.150Z,3.70
2019-05-25T13:15:29.005Z,5.47
2019-05-25T13:20:23.683Z,3.27
2019-05-25T13:25:17.844Z,4.73
2019-05-25T13:30:14.704Z,5.50
2019-05-25T13:35:09.082Z,4.00
2019-05-25T13:49:53.510Z,4.77
2019-05-25T13:54:47.411Z,3.77
2019-05-25T13:59:42.669Z,5.47
2019-05-25T14:04:37.056Z,2.80
2019-05-25T14:09:31.451Z,4.07
2019-05-25T14:14:25.234Z,19.30
2019-05-25T14:19:19.098Z,4.33
2019-05-25T14:24:12.918Z,3.80
2019-05-25T14:29:10.500Z,3.93
2019-05-25T14:34:04.460Z,4.00
2019-05-25T14:38:59.232Z,4.73
2019-05-25T14:43:55.194Z,4.10
2019-05-25T14:48:49.955Z,3.97
2019-05-25T14:53:44.215Z,4.17
2019-05-25T14:58:38.707Z,16.70
2019-05-25T15:03:33.468Z,4.40
2019-05-25T15:08:30.264Z,3.90
2019-05-25T15:13:24.676Z,11.30
2019-05-25T15:18:19.747Z,5.80
2019-05-25T15:23:14.930Z,5.67
2019-05-25T15:28:09.160Z,6.27
2019-05-25T15:33:06.027Z,7.17
2019-05-25T15:38:00.148Z,5.40
2019-05-25T15:42:54.923Z,7.57
2019-05-25T15:47:49.333Z,11.10
2019-05-25T15:52:43.077Z,8.33
2019-05-25T15:57:37.308Z,8.30
2019-05-25T16:02:36.769Z,7.47
2019-05-25T16:07:27.338Z,8.60
2019-05-25T16:12:23.302Z,13.27
2019-05-25T16:17:17.143Z,11.43
2019-05-25T16:22:11.283Z,9.73
2019-05-25T16:27:05.773Z,14.27
2019-05-25T16:32:00.080Z,11.93
2019-05-25T16:36:55.809Z,29.10
2019-05-25T16:41:49.776Z,10.23
2019-05-25T16:46:44.004Z,11.07
2019-05-25T16:51:37.998Z,11.93
2019-05-25T16:56:38.294Z,12.60
2019-05-25T17:01:47.752Z,13.30
2019-05-25T17:06:30.482Z,12.30
2019-05-25T17:11:24.549Z,13.37
2019-05-25T17:16:18.555Z,10.63
2019-05-25T17:21:12.822Z,12.33
2019-05-25T17:26:06.988Z,10.80
2019-05-25T17:31:01.049Z,10.83
2019-05-25T17:35:56.227Z,9.77
2019-05-25T17:40:50.109Z,18.87
2019-05-25T17:45:44.923Z,10.40
2019-05-25T17:50:39.221Z,10.13
2019-05-25T17:55:33.187Z,9.10
2019-05-25T18:00:43.603Z,8.57
2019-05-25T18:05:35.229Z,7.77
2019-05-25T18:10:29.099Z,7.83
2019-05-25T18:15:22.897Z,6.60
2019-05-25T18:20:20.605Z,7.43
2019-05-25T18:25:14.430Z,8.87
2019-05-25T18:30:10.733Z,6.60
2019-05-25T18:35:06.940Z,6.60
2019-05-25T18:40:02.172Z,5.90
2019-05-25T18:45:00.614Z,6.03
2019-05-25T18:49:56.184Z,6.73
2019-05-25T18:54:50.089Z,8.07
2019-05-25T18:59:44.296Z,7.60
2019-05-25T19:04:46.360Z,9.53
2019-05-25T19:14:30.351Z,7.73
2019-05-25T19:19:24.270Z,8.40
2019-05-25T19:24:18.251Z,8.23
2019-05-25T19:29:13.182Z,6.67
2019-05-25T19:34:07.047Z,7.03
2019-05-25T19:39:02.941Z,8.00
2019-05-25T19:43:57.406Z,10.10
2019-05-25T19:48:51.728Z,8.90
2019-05-25T19:53:45.711Z,20.83
2019-05-25T19:58:42.717Z,11.73
2019-05-25T20:03:38.393Z,12.30
2019-05-25T20:13:26.182Z,22.23
2019-05-25T20:18:19.983Z,12.40
2019-05-25T20:23:13.851Z,10.23
2019-05-25T20:28:09.252Z,19.57
2019-05-25T20:33:05.097Z,15.73
2019-05-25T20:38:00.422Z,16.53
2019-05-25T20:42:54.547Z,15.87
2019-05-25T20:47:49.491Z,12.03
2019-05-25T20:52:43.389Z,11.80
2019-05-25T20:57:37.740Z,10.63
2019-05-25T21:02:34.092Z,11.33
2019-05-25T21:07:28.599Z,14.33
2019-05-25T21:12:22.355Z,12.80
2019-05-25T21:17:17.603Z,10.83
2019-05-25T21:22:11.440Z,11.43
2019-05-25T21:27:07.469Z,10.50
2019-05-25T21:32:00.901Z,10.10
2019-05-25T21:36:56.717Z,11.43
2019-05-25T21:41:50.467Z,8.23
2019-05-25T21:46:44.656Z,8.00
2019-05-25T21:51:38.726Z,8.10
2019-05-25T21:56:32.587Z,7.63
2019-05-25T22:01:27.119Z,6.23
2019-05-25T22:06:24.535Z,5.80
2019-05-25T22:11:18.358Z,5.87
2019-05-25T22:16:14.052Z,5.90
2019-05-25T22:21:11.162Z,9.00
2019-05-25T22:26:07.064Z,5.70
2019-05-25T22:31:01.913Z,6.27
2019-05-25T22:35:55.835Z,6.07
2019-05-25T22:40:51.767Z,6.13
2019-05-25T22:45:47.437Z,5.97
2019-05-25T22:50:41.178Z,6.73
2019-05-25T22:55:36.730Z,5.93
2019-05-25T23:00:32.029Z,6.80
2019-05-25T23:05:26.444Z,5.50
2019-05-25T23:10:20.950Z,5.30
2019-05-25T23:15:16.475Z,4.70
2019-05-25T23:20:12.917Z,5.27
2019-05-25T23:29:59.600Z,5.87
2019-05-25T23:34:55.099Z,6.27
2019-05-25T23:39:50.094Z,6.30
2019-05-25T23:44:44.587Z,6.57
2019-05-25T23:49:41.563Z,6.30
2019-05-25T23:54:36.499Z,7.50
2019-05-25T23:59:32.952Z,6.93
